createdAt,value
2023-03-22T00:00:11.734Z,9.25
2023-03-22T00:01:15.094Z,9.25
2023-03-22T00:02:18.002Z,9.25
2023-03-22T00:03:53.293Z,9.25
2023-03-22T00:04:56.614Z,9.25
2023-03-22T00:05:59.564Z,9.19
2023-03-22T00:07:34.488Z,9.25
2023-03-22T00:08:37.340Z,9.19
2023-03-22T00:09:40.338Z,9.19
2023-03-22T00:11:15.513Z,9.25
2023-03-22T00:12:18.407Z,9.25
2023-03-22T00:13:21.283Z,9.25
2023-03-22T00:14:58.910Z,9.25
2023-03-22T00:16:01.691Z,9.25
2023-03-22T00:17:04.976Z,9.25
2023-03-22T00:18:39.605Z,9.19
2023-03-22T00:19:42.439Z,9.19
2023-03-22T00:20:45.376Z,9.19
2023-03-22T00:22:20.193Z,9.19
2023-03-22T00:23:23.088Z,9.19
2023-03-22T00:24:25.952Z,9.19
2023-03-22T00:26:00.732Z,9.19
2023-03-22T00:27:03.619Z,9.19
2023-03-22T00:28:06.505Z,9.19
2023-03-22T00:29:41.083Z,9.13
2023-03-22T00:30:43.857Z,9.13
2023-03-22T00:31:47.191Z,9.19
2023-03-22T00:33:21.934Z,9.19
2023-03-22T00:34:24.731Z,9.19
2023-03-22T00:35:27.576Z,9.19
2023-03-22T00:37:02.509Z,9.19
2023-03-22T00:38:05.496Z,9.13
2023-03-22T00:39:25.790Z,9.19
2023-03-22T00:41:02.798Z,9.13
2023-03-22T00:42:05.804Z,9.19
2023-03-22T00:43:08.679Z,9.19
2023-03-22T00:44:43.401Z,9.19
2023-03-22T00:45:46.245Z,9.19
2023-03-22T00:46:49.430Z,9.19
2023-03-22T00:48:24.365Z,9.13
2023-03-22T00:49:27.164Z,9.13
2023-03-22T00:50:30.008Z,9.13
2023-03-22T00:52:04.583Z,9.13
2023-03-22T00:53:07.291Z,9.06
2023-03-22T00:54:10.205Z,9.13
2023-03-22T00:55:44.945Z,9.13
2023-03-22T00:56:47.980Z,9.06
2023-03-22T00:57:50.849Z,9.06
2023-03-22T00:59:25.544Z,9.06
2023-03-22T01:00:12.053Z,9.06
2023-03-22T01:01:15.737Z,9.06
2023-03-22T01:02:19.046Z,9.06
2023-03-22T01:03:53.928Z,9.00
2023-03-22T01:04:56.822Z,9.00
2023-03-22T01:05:59.765Z,9.00
2023-03-22T01:07:34.359Z,9.00
2023-03-22T01:08:37.183Z,9.00
2023-03-22T01:09:39.942Z,9.00
2023-03-22T01:11:15.018Z,9.00
2023-03-22T01:12:17.962Z,9.00
2023-03-22T01:13:20.902Z,8.94
2023-03-22T01:14:55.725Z,8.94
2023-03-22T01:15:58.721Z,8.94
2023-03-22T01:17:01.872Z,8.94
2023-03-22T01:18:36.641Z,8.94
2023-03-22T01:19:39.541Z,8.94
2023-03-22T01:20:42.506Z,8.94
2023-03-22T01:22:17.238Z,8.88
2023-03-22T01:23:20.015Z,8.88
2023-03-22T01:24:23.213Z,8.88
2023-03-22T01:25:57.903Z,8.88
2023-03-22T01:27:00.735Z,8.88
2023-03-22T01:28:03.892Z,8.88
2023-03-22T01:29:39.702Z,8.88
2023-03-22T01:30:42.774Z,8.88
2023-03-22T01:31:46.276Z,8.88
2023-03-22T01:33:20.915Z,8.88
2023-03-22T01:34:23.865Z,8.88
2023-03-22T01:35:26.678Z,8.88
2023-03-22T01:37:01.655Z,8.88
2023-03-22T01:38:04.427Z,8.88
2023-03-22T01:39:07.545Z,8.94
2023-03-22T01:40:42.636Z,8.88
2023-03-22T01:41:45.620Z,8.88
2023-03-22T01:42:48.305Z,8.88
2023-03-22T01:44:22.936Z,8.94
2023-03-22T01:45:25.765Z,8.88
2023-03-22T01:46:29.253Z,8.94
2023-03-22T01:48:04.241Z,8.94
2023-03-22T01:49:07.347Z,8.94
2023-03-22T01:50:10.756Z,8.94
2023-03-22T01:51:46.166Z,8.88
2023-03-22T01:52:48.884Z,8.88
2023-03-22T01:53:51.779Z,8.94
2023-03-22T01:55:26.469Z,8.88
2023-03-22T01:56:29.332Z,8.88
2023-03-22T01:57:32.202Z,8.88
2023-03-22T01:59:06.860Z,8.88
2023-03-22T02:00:12.681Z,8.88
2023-03-22T02:01:15.945Z,8.88
2023-03-22T02:02:19.445Z,8.88
2023-03-22T02:03:54.773Z,8.88
2023-03-22T02:04:57.683Z,8.88
2023-03-22T02:06:00.598Z,8.88
2023-03-22T02:07:35.376Z,8.88
2023-03-22T02:08:38.193Z,8.88
2023-03-22T02:09:41.062Z,8.81
2023-03-22T02:11:15.962Z,8.81
2023-03-22T02:12:18.746Z,8.81
2023-03-22T02:13:21.472Z,8.81
2023-03-22T02:14:58.184Z,8.81
2023-03-22T02:16:01.016Z,8.81
2023-03-22T02:17:04.049Z,8.81
2023-03-22T02:18:38.750Z,8.75
2023-03-22T02:19:41.635Z,8.75
2023-03-22T02:20:44.499Z,8.75
2023-03-22T02:22:20.577Z,8.75
2023-03-22T02:23:23.422Z,8.75
2023-03-22T02:24:26.447Z,8.75
2023-03-22T02:26:01.868Z,8.75
2023-03-22T02:27:04.713Z,8.75
2023-03-22T02:28:07.440Z,8.75
2023-03-22T02:29:41.839Z,8.69
2023-03-22T02:30:44.645Z,8.69
2023-03-22T02:31:47.705Z,8.69
2023-03-22T02:33:22.232Z,8.69
2023-03-22T02:34:27.799Z,8.69
2023-03-22T02:35:30.866Z,8.69
2023-03-22T02:37:06.065Z,8.69
2023-03-22T02:38:09.088Z,8.69
2023-03-22T02:39:12.018Z,8.63
2023-03-22T02:40:46.839Z,8.63
2023-03-22T02:41:49.779Z,8.63
2023-03-22T02:42:52.674Z,8.63
2023-03-22T02:44:27.377Z,8.63
2023-03-22T02:45:30.257Z,8.63
2023-03-22T02:46:33.163Z,8.63
2023-03-22T02:48:08.438Z,8.56
2023-03-22T02:49:11.552Z,8.56
2023-03-22T02:50:14.335Z,8.56
2023-03-22T02:51:49.455Z,8.56
2023-03-22T02:52:52.418Z,8.56
2023-03-22T02:53:55.309Z,8.56
2023-03-22T02:55:30.854Z,8.50
2023-03-22T02:56:33.861Z,8.56
2023-03-22T02:57:36.716Z,8.50
2023-03-22T02:59:11.480Z,8.50
2023-03-22T03:00:12.431Z,8.50
2023-03-22T03:01:16.335Z,8.50
2023-03-22T03:02:19.420Z,8.50
2023-03-22T03:03:54.020Z,8.50
2023-03-22T03:04:56.763Z,8.50
2023-03-22T03:05:59.616Z,8.50
2023-03-22T03:07:34.222Z,8.50
2023-03-22T03:08:37.169Z,8.50
2023-03-22T03:09:40.172Z,8.50
2023-03-22T03:11:15.407Z,8.56
2023-03-22T03:12:18.532Z,8.56
2023-03-22T03:13:21.568Z,8.56
2023-03-22T03:14:56.492Z,8.63
2023-03-22T03:15:59.384Z,8.63
2023-03-22T03:17:02.739Z,8.63
2023-03-22T03:18:37.766Z,8.63
2023-03-22T03:19:40.596Z,8.63
2023-03-22T03:20:43.389Z,8.63
2023-03-22T03:22:18.016Z,8.63
2023-03-22T03:23:20.822Z,8.69
2023-03-22T03:24:23.545Z,8.69
2023-03-22T03:25:58.319Z,8.69
2023-03-22T03:27:01.166Z,8.69
2023-03-22T03:28:03.930Z,8.75
2023-03-22T03:29:38.701Z,8.75
2023-03-22T03:30:41.636Z,8.75
2023-03-22T03:31:44.639Z,8.75
2023-03-22T03:33:19.626Z,8.75
2023-03-22T03:34:22.463Z,8.75
2023-03-22T03:35:25.446Z,8.75
2023-03-22T03:37:00.277Z,8.81
2023-03-22T03:38:03.064Z,8.81
2023-03-22T03:39:06.018Z,8.81
2023-03-22T03:40:41.089Z,8.81
2023-03-22T03:41:44.083Z,8.88
2023-03-22T03:42:46.833Z,8.88
2023-03-22T03:44:21.608Z,8.88
2023-03-22T03:45:24.448Z,8.88
2023-03-22T03:46:27.685Z,8.88
2023-03-22T03:48:02.403Z,8.88
2023-03-22T03:49:05.713Z,8.88
2023-03-22T03:50:08.585Z,8.88
2023-03-22T03:51:43.731Z,8.88
2023-03-22T03:52:46.449Z,8.94
2023-03-22T03:53:49.404Z,8.94
2023-03-22T03:55:24.131Z,8.88
2023-03-22T03:56:26.969Z,8.94
2023-03-22T03:57:29.719Z,8.94
2023-03-22T03:59:04.733Z,8.88
2023-03-22T04:00:11.891Z,8.94
2023-03-22T04:01:15.251Z,8.94
2023-03-22T04:02:18.103Z,8.88
2023-03-22T04:03:53.319Z,8.88
2023-03-22T04:04:56.454Z,8.88
2023-03-22T04:05:59.302Z,8.88
2023-03-22T04:07:34.050Z,8.88
2023-03-22T04:08:36.913Z,8.88
2023-03-22T04:09:39.930Z,8.88
2023-03-22T04:11:15.039Z,8.88
2023-03-22T04:12:17.700Z,8.88
2023-03-22T04:13:20.466Z,8.88
2023-03-22T04:14:55.017Z,8.88
2023-03-22T04:15:57.858Z,8.88
2023-03-22T04:17:00.789Z,8.88
2023-03-22T04:18:36.123Z,8.88
2023-03-22T04:19:39.148Z,8.81
2023-03-22T04:20:43.162Z,8.81
2023-03-22T04:22:17.934Z,8.81
2023-03-22T04:23:20.741Z,8.81
2023-03-22T04:24:23.638Z,8.88
2023-03-22T04:25:58.337Z,8.88
2023-03-22T04:27:01.775Z,8.88
2023-03-22T04:28:04.627Z,8.88
2023-03-22T04:29:39.336Z,8.94
2023-03-22T04:30:42.510Z,8.94
2023-03-22T04:31:45.853Z,8.94
2023-03-22T04:33:20.421Z,8.94
2023-03-22T04:34:23.337Z,8.94
2023-03-22T04:35:26.198Z,8.94
2023-03-22T04:37:01.233Z,8.94
2023-03-22T04:38:04.225Z,8.94
2023-03-22T04:39:07.237Z,8.94
2023-03-22T04:40:42.481Z,8.94
2023-03-22T04:41:45.462Z,8.94
2023-03-22T04:42:48.359Z,9.00
2023-03-22T04:44:25.951Z,9.00
2023-03-22T04:45:28.647Z,9.00
2023-03-22T04:46:31.608Z,9.00
2023-03-22T04:48:06.518Z,9.00
2023-03-22T04:49:09.464Z,9.00
2023-03-22T04:50:12.183Z,9.00
2023-03-22T04:51:47.298Z,9.00
2023-03-22T04:52:50.179Z,9.00
2023-03-22T04:53:53.082Z,9.00
2023-03-22T04:55:27.808Z,9.00
2023-03-22T04:56:30.762Z,9.00
2023-03-22T04:57:33.630Z,9.06
2023-03-22T04:59:08.422Z,9.00
2023-03-22T05:00:12.593Z,9.00
2023-03-22T05:01:15.937Z,9.00
2023-03-22T05:02:19.048Z,9.00
2023-03-22T05:03:54.421Z,9.00
2023-03-22T05:04:57.209Z,9.00
2023-03-22T05:05:41.883Z,9.00
2023-03-22T05:06:44.947Z,9.06
2023-03-22T05:07:47.919Z,9.06
2023-03-22T05:09:23.623Z,9.06
2023-03-22T05:10:27.024Z,9.06
2023-03-22T05:11:30.609Z,9.06
2023-03-22T05:13:05.611Z,9.06
2023-03-22T05:14:08.705Z,9.06
2023-03-22T05:15:12.237Z,9.06
2023-03-22T05:16:47.532Z,9.06
2023-03-22T05:17:50.365Z,9.13
2023-03-22T05:18:53.390Z,9.13
2023-03-22T05:20:28.227Z,9.13
2023-03-22T05:21:31.406Z,9.13
2023-03-22T05:22:34.451Z,9.13
2023-03-22T05:24:09.350Z,9.13
2023-03-22T05:25:12.407Z,9.13
2023-03-22T05:26:15.254Z,9.19
2023-03-22T05:27:50.024Z,9.19
2023-03-22T05:28:52.912Z,9.19
2023-03-22T05:29:55.826Z,9.19
2023-03-22T05:31:32.164Z,9.19
2023-03-22T05:32:35.575Z,9.25
2023-03-22T05:33:38.640Z,9.19
2023-03-22T05:35:13.339Z,9.25
2023-03-22T05:36:16.885Z,9.25
2023-03-22T05:37:19.724Z,9.25
2023-03-22T05:38:54.519Z,9.25
2023-03-22T05:39:57.627Z,9.25
2023-03-22T05:41:00.465Z,9.25
2023-03-22T05:42:35.414Z,9.25
2023-03-22T05:43:38.312Z,9.25
2023-03-22T05:44:41.234Z,9.25
2023-03-22T05:46:16.058Z,9.25
2023-03-22T05:47:19.100Z,9.25
2023-03-22T05:48:22.151Z,9.31
2023-03-22T05:49:58.383Z,9.31
2023-03-22T05:51:01.326Z,9.31
2023-03-22T05:52:04.497Z,9.31
2023-03-22T05:53:39.385Z,9.31
2023-03-22T05:54:42.277Z,9.31
2023-03-22T05:55:44.984Z,9.31
2023-03-22T05:57:19.791Z,9.31
2023-03-22T05:58:22.680Z,9.31
2023-03-22T05:59:25.617Z,9.31
2023-03-22T06:00:12.204Z,9.31
2023-03-22T06:01:15.812Z,9.31
2023-03-22T06:02:18.998Z,9.31
2023-03-22T06:03:57.597Z,9.25
2023-03-22T06:05:00.387Z,9.25
2023-03-22T06:06:03.305Z,9.25
2023-03-22T06:07:38.124Z,9.25
2023-03-22T06:08:41.020Z,9.25
2023-03-22T06:10:00.392Z,9.25
2023-03-22T06:11:35.258Z,9.19
2023-03-22T06:12:38.172Z,9.19
2023-03-22T06:13:41.517Z,9.19
2023-03-22T06:15:16.436Z,9.13
2023-03-22T06:16:19.358Z,9.13
2023-03-22T06:17:22.488Z,9.13
2023-03-22T06:18:57.398Z,9.13
2023-03-22T06:20:00.452Z,9.13
2023-03-22T06:21:03.409Z,9.13
2023-03-22T06:22:38.229Z,9.13
2023-03-22T06:23:41.084Z,9.06
2023-03-22T06:24:43.973Z,9.06
2023-03-22T06:26:18.630Z,9.06
2023-03-22T06:27:21.625Z,9.06
2023-03-22T06:28:24.423Z,9.06
2023-03-22T06:29:59.218Z,9.13
2023-03-22T06:31:02.272Z,9.13
2023-03-22T06:32:05.508Z,9.13
2023-03-22T06:33:40.598Z,9.13
2023-03-22T06:34:45.732Z,9.06
2023-03-22T06:35:48.754Z,9.06
2023-03-22T06:37:23.737Z,9.06
2023-03-22T06:38:26.593Z,9.13
2023-03-22T06:39:29.412Z,9.13
2023-03-22T06:41:04.203Z,9.13
2023-03-22T06:42:07.076Z,9.13
2023-03-22T06:43:09.967Z,9.13
2023-03-22T06:44:44.713Z,9.13
2023-03-22T06:45:47.672Z,9.13
2023-03-22T06:46:51.002Z,9.13
2023-03-22T06:48:25.854Z,9.13
2023-03-22T06:49:28.914Z,9.19
2023-03-22T06:50:31.743Z,9.19
2023-03-22T06:52:08.118Z,9.25
2023-03-22T06:53:11.193Z,9.25
2023-03-22T06:54:14.067Z,9.25
2023-03-22T06:55:48.844Z,9.31
2023-03-22T06:56:53.113Z,9.38
2023-03-22T06:57:55.981Z,9.38
2023-03-22T06:59:30.942Z,9.44
2023-03-22T07:00:11.518Z,9.44
2023-03-22T07:01:14.912Z,9.50
2023-03-22T07:02:18.241Z,9.50
2023-03-22T07:03:52.827Z,9.50
2023-03-22T07:04:56.133Z,9.50
2023-03-22T07:05:58.910Z,9.50
2023-03-22T07:07:33.760Z,9.50
2023-03-22T07:08:36.863Z,9.56
2023-03-22T07:09:42.474Z,9.56
2023-03-22T07:11:17.516Z,9.56
2023-03-22T07:12:20.385Z,9.63
2023-03-22T07:13:24.268Z,9.63
2023-03-22T07:14:59.036Z,9.63
2023-03-22T07:16:02.038Z,9.69
2023-03-22T07:17:06.543Z,9.75
2023-03-22T07:18:41.324Z,9.81
2023-03-22T07:19:44.093Z,9.81
2023-03-22T07:20:46.932Z,9.81
2023-03-22T07:22:21.757Z,9.88
2023-03-22T07:23:24.672Z,9.88
2023-03-22T07:24:27.480Z,9.88
2023-03-22T07:26:19.792Z,9.94
2023-03-22T07:27:22.614Z,9.94
2023-03-22T07:28:25.574Z,9.94
2023-03-22T07:30:00.447Z,9.94
2023-03-22T07:31:06.604Z,10.00
2023-03-22T07:32:09.813Z,10.00
2023-03-22T07:33:45.124Z,10.00
2023-03-22T07:34:48.078Z,10.06
2023-03-22T07:35:51.113Z,10.06
2023-03-22T07:37:26.046Z,10.06
2023-03-22T07:38:28.895Z,10.06
2023-03-22T07:39:31.648Z,10.06
2023-03-22T07:41:06.379Z,10.13
2023-03-22T07:42:09.148Z,10.13
2023-03-22T07:43:12.165Z,10.13
2023-03-22T07:45:18.035Z,10.13
2023-03-22T07:46:21.267Z,10.13
2023-03-22T07:47:39.872Z,10.13
2023-03-22T07:49:15.973Z,10.19
2023-03-22T07:50:18.855Z,10.13
2023-03-22T07:51:22.614Z,10.13
2023-03-22T07:52:57.491Z,10.19
2023-03-22T07:54:00.489Z,10.19
2023-03-22T07:55:22.297Z,10.19
2023-03-22T07:56:56.929Z,10.19
2023-03-22T07:57:59.656Z,10.19
2023-03-22T07:59:02.565Z,10.25
2023-03-22T08:00:12.403Z,10.25
2023-03-22T08:01:15.793Z,10.25
2023-03-22T08:02:19.273Z,10.25
2023-03-22T08:03:54.791Z,10.25
2023-03-22T08:04:57.655Z,10.25
2023-03-22T08:06:00.469Z,10.25
2023-03-22T08:07:35.633Z,10.31
2023-03-22T08:08:38.651Z,10.25
2023-03-22T08:09:41.607Z,10.31
2023-03-22T08:11:17.749Z,10.31
2023-03-22T08:12:20.651Z,10.31
2023-03-22T08:13:23.643Z,10.31
2023-03-22T08:15:12.058Z,10.31
2023-03-22T08:16:15.889Z,10.31
2023-03-22T08:17:19.339Z,10.31
2023-03-22T08:18:54.043Z,10.31
2023-03-22T08:19:56.918Z,10.31
2023-03-22T08:20:59.767Z,10.31
2023-03-22T08:22:34.609Z,10.38
2023-03-22T08:23:41.847Z,10.38
2023-03-22T08:24:47.191Z,10.31
2023-03-22T08:26:22.020Z,10.38
2023-03-22T08:27:25.104Z,10.44
2023-03-22T08:28:27.831Z,10.44
2023-03-22T08:30:02.547Z,10.50
2023-03-22T08:31:05.402Z,10.56
2023-03-22T08:32:11.413Z,10.63
2023-03-22T08:33:46.054Z,10.69
2023-03-22T08:34:48.925Z,10.75
2023-03-22T08:35:51.853Z,10.75
2023-03-22T08:37:26.765Z,10.75
2023-03-22T08:38:29.965Z,10.75
2023-03-22T08:39:33.103Z,10.81
2023-03-22T08:41:08.304Z,10.81
2023-03-22T08:42:11.275Z,10.81
2023-03-22T08:43:14.272Z,10.88
2023-03-22T08:44:49.026Z,10.88
2023-03-22T08:45:51.924Z,10.88
2023-03-22T08:46:55.248Z,10.88
2023-03-22T08:48:32.288Z,10.88
2023-03-22T08:49:35.334Z,10.94
2023-03-22T08:50:38.189Z,10.94
2023-03-22T08:52:12.951Z,10.94
2023-03-22T08:53:15.857Z,10.94
2023-03-22T08:54:18.879Z,10.94
2023-03-22T08:55:53.718Z,10.94
2023-03-22T08:56:56.627Z,10.94
2023-03-22T08:57:59.495Z,10.94
2023-03-22T08:59:34.606Z,10.94
2023-03-22T09:00:12.170Z,10.94
2023-03-22T09:01:34.046Z,10.94
2023-03-22T09:02:37.976Z,10.94
2023-03-22T09:04:12.738Z,10.94
2023-03-22T09:05:15.992Z,10.94
2023-03-22T09:06:19.159Z,10.94
2023-03-22T09:07:54.001Z,11.00
2023-03-22T09:09:10.436Z,11.00
2023-03-22T09:10:13.495Z,11.06
2023-03-22T09:11:50.156Z,11.06
2023-03-22T09:12:53.014Z,11.13
2023-03-22T09:13:55.810Z,11.13
2023-03-22T09:15:31.813Z,11.13
2023-03-22T09:16:35.817Z,11.19
2023-03-22T09:17:38.708Z,11.19
2023-03-22T09:19:13.501Z,11.19
2023-03-22T09:20:17.437Z,11.19
2023-03-22T09:21:20.828Z,11.19
2023-03-22T09:22:55.405Z,11.25
2023-03-22T09:23:58.262Z,11.25
2023-03-22T09:25:00.999Z,11.25
2023-03-22T09:26:36.772Z,11.25
2023-03-22T09:27:39.847Z,11.19
2023-03-22T09:28:43.153Z,11.19
2023-03-22T09:30:17.966Z,11.19
2023-03-22T09:31:21.628Z,11.25
2023-03-22T09:32:24.893Z,11.25
2023-03-22T09:33:59.707Z,11.31
2023-03-22T09:35:02.625Z,11.31
2023-03-22T09:36:05.637Z,11.38
2023-03-22T09:37:43.497Z,11.44
2023-03-22T09:38:46.379Z,11.44
2023-03-22T09:39:49.193Z,11.44
2023-03-22T09:41:23.759Z,11.44
2023-03-22T09:42:26.689Z,11.44
2023-03-22T09:43:30.607Z,11.44
2023-03-22T09:45:06.919Z,11.38
2023-03-22T09:46:09.867Z,11.38
2023-03-22T09:47:13.083Z,11.38
2023-03-22T09:49:03.959Z,11.31
2023-03-22T09:50:18.535Z,11.31
2023-03-22T09:51:21.511Z,11.31
2023-03-22T09:52:56.932Z,11.31
2023-03-22T09:53:59.866Z,11.31
2023-03-22T09:55:02.693Z,11.31
2023-03-22T09:56:37.282Z,11.31
2023-03-22T09:57:40.198Z,11.31
2023-03-22T09:58:43.176Z,11.25
2023-03-22T10:00:12.560Z,11.25
2023-03-22T10:01:18.525Z,11.25
2023-03-22T10:02:25.055Z,11.25
2023-03-22T10:04:00.691Z,11.19
2023-03-22T10:05:03.988Z,11.19
2023-03-22T10:06:07.032Z,11.19
2023-03-22T10:07:41.927Z,11.13
2023-03-22T10:08:44.842Z,11.13
2023-03-22T10:09:47.638Z,11.19
2023-03-22T10:11:22.378Z,11.13
2023-03-22T10:12:26.744Z,11.13
2023-03-22T10:13:29.635Z,11.13
2023-03-22T10:15:04.555Z,11.19
2023-03-22T10:16:07.349Z,11.19
2023-03-22T10:17:10.598Z,11.19
2023-03-22T10:18:45.345Z,11.19
2023-03-22T10:19:48.466Z,11.19
2023-03-22T10:20:51.758Z,11.19
2023-03-22T10:22:26.609Z,11.13
2023-03-22T10:23:29.507Z,11.13
2023-03-22T10:24:35.680Z,11.13
2023-03-22T10:26:10.636Z,11.13
2023-03-22T10:27:13.909Z,11.06
2023-03-22T10:28:17.009Z,11.00
2023-03-22T10:29:51.630Z,10.94
2023-03-22T10:30:54.530Z,10.88
2023-03-22T10:31:58.201Z,10.81
2023-03-22T10:33:44.553Z,10.75
2023-03-22T10:34:47.500Z,10.75
2023-03-22T10:35:50.468Z,10.69
2023-03-22T10:37:25.404Z,10.63
2023-03-22T10:38:28.300Z,10.56
2023-03-22T10:39:31.199Z,10.56
2023-03-22T10:41:08.867Z,10.44
2023-03-22T10:42:11.796Z,10.44
2023-03-22T10:43:14.707Z,10.44
2023-03-22T10:44:49.299Z,10.38
2023-03-22T10:45:52.162Z,10.38
2023-03-22T10:46:55.197Z,10.38
2023-03-22T10:48:30.403Z,10.38
2023-03-22T10:49:34.613Z,10.38
2023-03-22T10:50:38.361Z,10.38
2023-03-22T10:52:13.092Z,10.38
2023-03-22T10:53:16.045Z,10.38
2023-03-22T10:54:19.045Z,10.38
2023-03-22T10:55:55.438Z,10.38
2023-03-22T10:56:58.314Z,10.38
2023-03-22T10:58:01.267Z,10.44
2023-03-22T10:59:36.315Z,10.44
2023-03-22T11:00:12.129Z,10.44
2023-03-22T11:01:20.043Z,10.44
2023-03-22T11:02:24.361Z,10.44
2023-03-22T11:04:00.098Z,10.50
2023-03-22T11:05:02.861Z,10.50
2023-03-22T11:06:05.799Z,10.50
2023-03-22T11:07:42.476Z,10.56
2023-03-22T11:08:45.244Z,10.50
2023-03-22T11:09:48.161Z,10.56
2023-03-22T11:11:23.173Z,10.56
2023-03-22T11:12:26.106Z,10.56
2023-03-22T11:13:31.647Z,10.56
2023-03-22T11:15:06.498Z,10.63
2023-03-22T11:16:09.469Z,10.56
2023-03-22T11:17:12.711Z,10.56
2023-03-22T11:18:49.958Z,10.63
2023-03-22T11:19:52.862Z,10.63
2023-03-22T11:20:59.226Z,10.63
2023-03-22T11:22:33.904Z,10.56
2023-03-22T11:23:36.693Z,10.56
2023-03-22T11:24:39.493Z,10.56
2023-03-22T11:26:14.248Z,10.50
2023-03-22T11:27:22.045Z,10.56
2023-03-22T11:28:24.981Z,10.50
2023-03-22T11:29:59.852Z,10.50
2023-03-22T11:31:02.939Z,10.44
2023-03-22T11:32:06.181Z,10.44
2023-03-22T11:33:41.960Z,10.44
2023-03-22T11:34:44.847Z,10.44
2023-03-22T11:35:47.876Z,10.44
2023-03-22T11:37:23.907Z,10.44
2023-03-22T11:38:26.583Z,10.44
2023-03-22T11:39:32.385Z,10.44
2023-03-22T11:41:07.013Z,10.44
2023-03-22T11:42:09.733Z,10.38
2023-03-22T11:43:12.659Z,10.38
2023-03-22T11:44:47.856Z,10.38
2023-03-22T11:45:50.728Z,10.38
2023-03-22T11:46:53.942Z,10.38
2023-03-22T11:48:29.441Z,10.38
2023-03-22T11:49:36.062Z,10.38
2023-03-22T11:50:39.501Z,10.38
2023-03-22T11:52:14.281Z,10.38
2023-03-22T11:53:17.425Z,10.38
2023-03-22T11:54:20.292Z,10.38
2023-03-22T11:55:55.086Z,10.38
2023-03-22T11:56:57.880Z,10.38
2023-03-22T11:58:00.623Z,10.38
2023-03-22T11:59:36.400Z,10.38
2023-03-22T12:00:11.752Z,10.38
2023-03-22T12:01:14.599Z,10.38
2023-03-22T12:02:17.540Z,10.38
2023-03-22T12:03:54.025Z,10.44
2023-03-22T12:04:57.589Z,10.44
2023-03-22T12:06:01.148Z,10.50
2023-03-22T12:07:36.526Z,10.50
2023-03-22T12:08:39.413Z,10.50
2023-03-22T12:09:43.332Z,10.50
2023-03-22T12:11:18.659Z,10.50
2023-03-22T12:12:21.802Z,10.50
2023-03-22T12:13:24.702Z,10.50
2023-03-22T12:14:59.903Z,10.50
2023-03-22T12:16:03.031Z,10.50
2023-03-22T12:17:07.888Z,10.50
2023-03-22T12:18:43.703Z,10.56
2023-03-22T12:19:46.623Z,10.56
2023-03-22T12:20:49.618Z,10.56
2023-03-22T12:22:24.461Z,10.56
2023-03-22T12:23:27.415Z,10.56
2023-03-22T12:24:30.361Z,10.56
2023-03-22T12:26:06.493Z,10.56
2023-03-22T12:27:09.424Z,10.56
2023-03-22T12:28:12.410Z,10.56
2023-03-22T12:29:47.246Z,10.56
2023-03-22T12:30:50.165Z,10.56
2023-03-22T12:31:53.534Z,10.56
2023-03-22T12:33:28.881Z,10.56
2023-03-22T12:34:31.801Z,10.56
2023-03-22T12:35:56.914Z,10.56
2023-03-22T12:37:32.087Z,10.56
2023-03-22T12:38:35.207Z,10.63
2023-03-22T12:39:38.135Z,10.56
2023-03-22T12:41:13.538Z,10.56
2023-03-22T12:42:16.438Z,10.63
2023-03-22T12:43:35.296Z,10.63
2023-03-22T12:45:10.278Z,10.56
2023-03-22T12:46:13.262Z,10.63
2023-03-22T12:47:16.507Z,10.56
2023-03-22T12:48:52.132Z,10.63
2023-03-22T12:49:55.337Z,10.56
2023-03-22T12:50:58.237Z,10.56
2023-03-22T12:52:44.226Z,10.63
2023-03-22T12:53:48.895Z,10.63
2023-03-22T12:54:51.835Z,10.63
2023-03-22T12:56:27.191Z,10.63
2023-03-22T12:57:30.483Z,10.63
2023-03-22T12:58:33.411Z,10.63
2023-03-22T13:00:12.229Z,10.63
2023-03-22T13:01:15.916Z,10.69
2023-03-22T13:02:19.400Z,10.69
2023-03-22T13:03:57.084Z,10.69
2023-03-22T13:05:00.614Z,10.69
2023-03-22T13:06:03.397Z,10.69
2023-03-22T13:07:38.181Z,10.69
2023-03-22T13:08:41.145Z,10.69
2023-03-22T13:09:43.980Z,10.69
2023-03-22T13:11:19.003Z,10.69
2023-03-22T13:12:21.897Z,10.69
2023-03-22T13:13:24.940Z,10.69
2023-03-22T13:14:59.812Z,10.69
2023-03-22T13:16:17.389Z,10.75
2023-03-22T13:17:20.701Z,10.69
2023-03-22T13:18:56.116Z,10.69
2023-03-22T13:19:59.153Z,10.75
2023-03-22T13:21:01.958Z,10.69
2023-03-22T13:22:36.812Z,10.69
2023-03-22T13:23:39.801Z,10.75
2023-03-22T13:24:42.790Z,10.75
2023-03-22T13:26:18.093Z,10.75
2023-03-22T13:27:21.095Z,10.69
2023-03-22T13:28:24.225Z,10.75
2023-03-22T13:29:59.124Z,10.75
2023-03-22T13:31:02.377Z,10.75
2023-03-22T13:32:05.542Z,10.75
2023-03-22T13:33:42.737Z,10.75
2023-03-22T13:34:45.552Z,10.75
2023-03-22T13:35:48.521Z,10.75
2023-03-22T13:37:25.496Z,10.75
2023-03-22T13:38:28.360Z,10.75
2023-03-22T13:39:34.035Z,10.75
2023-03-22T13:41:09.169Z,10.75
2023-03-22T13:42:12.126Z,10.75
2023-03-22T13:43:15.150Z,10.75
2023-03-22T13:44:53.071Z,10.75
2023-03-22T13:45:56.092Z,10.75
2023-03-22T13:47:00.131Z,10.75
2023-03-22T13:48:36.292Z,10.75
2023-03-22T13:49:41.684Z,10.75
2023-03-22T13:50:47.745Z,10.75
2023-03-22T13:52:22.448Z,10.75
2023-03-22T13:53:25.400Z,10.75
2023-03-22T13:54:28.392Z,10.75
2023-03-22T13:56:04.914Z,10.75
2023-03-22T13:57:08.058Z,10.75
2023-03-22T13:58:10.943Z,10.75
2023-03-22T13:59:45.956Z,10.75
2023-03-22T14:00:14.995Z,10.75
2023-03-22T14:01:18.927Z,10.75
2023-03-22T14:02:23.237Z,10.75
2023-03-22T14:03:59.731Z,10.69
2023-03-22T14:05:02.928Z,10.69
2023-03-22T14:06:05.968Z,10.69
2023-03-22T14:07:40.589Z,10.69
2023-03-22T14:08:43.408Z,10.69
2023-03-22T14:09:46.376Z,10.69
2023-03-22T14:11:21.570Z,10.69
2023-03-22T14:12:24.428Z,10.69
2023-03-22T14:13:27.440Z,10.69
2023-03-22T14:15:02.057Z,10.63
2023-03-22T14:16:05.266Z,10.63
2023-03-22T14:17:08.462Z,10.63
2023-03-22T14:18:43.682Z,10.63
2023-03-22T14:19:46.610Z,10.63
2023-03-22T14:20:49.617Z,10.63
2023-03-22T14:53:01.904Z,10.75
2023-03-22T14:54:37.198Z,10.75
2023-03-22T14:55:40.463Z,10.75
2023-03-22T14:56:44.206Z,10.81
2023-03-22T14:58:18.916Z,10.81
2023-03-22T14:59:21.880Z,10.81
2023-03-22T15:01:15.483Z,10.81
2023-03-22T15:02:18.607Z,10.88
2023-03-22T15:03:53.949Z,10.88
2023-03-22T15:04:57.192Z,10.88
2023-03-22T15:06:02.681Z,10.88
2023-03-22T15:07:38.173Z,10.88
2023-03-22T15:08:41.097Z,10.88
2023-03-22T15:09:44.006Z,10.88
2023-03-22T15:11:18.832Z,10.88
2023-03-22T15:12:24.092Z,10.88
2023-03-22T15:13:27.037Z,10.88
2023-03-22T15:15:01.970Z,10.88
2023-03-22T15:16:05.907Z,10.88
2023-03-22T15:17:09.779Z,10.81
2023-03-22T15:18:47.112Z,10.81
2023-03-22T15:19:50.751Z,10.81
2023-03-22T15:20:53.621Z,10.88
2023-03-22T15:22:28.532Z,10.88
2023-03-22T15:23:31.408Z,10.88
2023-03-22T15:24:35.586Z,10.88
2023-03-22T15:26:10.770Z,10.88
2023-03-22T15:27:13.919Z,10.88
2023-03-22T15:28:16.850Z,10.88
2023-03-22T15:29:53.159Z,10.88
2023-03-22T15:30:56.241Z,10.88
2023-03-22T15:31:59.349Z,10.88
2023-03-22T15:33:33.997Z,10.88
2023-03-22T15:34:36.696Z,10.88
2023-03-22T15:35:40.673Z,10.88
2023-03-22T15:37:15.809Z,10.88
2023-03-22T15:38:23.448Z,10.88
2023-03-22T15:39:40.315Z,10.81
2023-03-22T15:41:15.386Z,10.81
2023-03-22T15:42:23.848Z,10.81
2023-03-22T15:43:26.692Z,10.81
2023-03-22T15:45:01.622Z,10.81
2023-03-22T15:46:04.747Z,10.81
2023-03-22T15:47:08.193Z,10.81
2023-03-22T15:48:42.822Z,10.81
2023-03-22T15:49:45.571Z,10.75
2023-03-22T15:50:48.630Z,10.75
2023-03-22T15:52:23.088Z,10.75
2023-03-22T15:53:26.795Z,10.75
2023-03-22T15:54:29.830Z,10.75
2023-03-22T15:56:04.571Z,10.75
2023-03-22T15:57:19.010Z,10.69
2023-03-22T15:58:23.541Z,10.69
2023-03-22T15:59:59.114Z,10.69
2023-03-22T16:00:12.145Z,10.69
2023-03-22T16:01:15.151Z,10.69
2023-03-22T16:02:18.743Z,10.63
2023-03-22T16:03:53.843Z,10.63
2023-03-22T16:04:56.898Z,10.63
2023-03-22T16:05:59.661Z,10.63
2023-03-22T16:07:34.326Z,10.56
2023-03-22T16:08:37.359Z,10.56
2023-03-22T16:09:40.271Z,10.56
2023-03-22T16:11:14.838Z,10.56
2023-03-22T16:12:17.896Z,10.50
2023-03-22T16:13:20.875Z,10.50
2023-03-22T16:14:55.689Z,10.50
2023-03-22T16:15:58.534Z,10.50
2023-03-22T16:17:01.745Z,10.50
2023-03-22T16:18:36.576Z,10.50
2023-03-22T16:19:39.445Z,10.50
2023-03-22T16:20:42.555Z,10.50
2023-03-22T16:22:17.344Z,10.50
2023-03-22T16:23:20.237Z,10.50
2023-03-22T16:24:23.058Z,10.50
2023-03-22T16:25:57.804Z,10.50
2023-03-22T16:27:00.694Z,10.50
2023-03-22T16:28:03.571Z,10.50
2023-03-22T16:29:38.109Z,10.50
2023-03-22T16:30:41.086Z,10.50
2023-03-22T16:31:51.052Z,10.50
2023-03-22T16:33:30.726Z,10.50
2023-03-22T16:34:33.793Z,10.50